createdAt,value
2022-11-13T00:02:58.672Z,11.35
2022-11-13T00:05:44.393Z,11.38
2022-11-13T00:08:30.638Z,11.44
2022-11-13T00:11:19.570Z,11.46
2022-11-13T00:14:05.886Z,11.45
2022-11-13T00:16:52.057Z,11.43
2022-11-13T00:19:37.646Z,11.44
2022-11-13T00:22:23.697Z,11.44
2022-11-13T00:25:09.624Z,11.47
2022-11-13T00:27:55.387Z,11.49
2022-11-13T00:30:41.010Z,11.50
2022-11-13T00:33:54.967Z,11.52
2022-11-13T00:36:32.220Z,11.56
2022-11-13T00:39:17.799Z,11.58
2022-11-13T00:42:03.740Z,11.58
2022-11-13T00:44:49.213Z,11.57
2022-11-13T00:47:35.742Z,11.55
2022-11-13T00:50:21.316Z,11.55
2022-11-13T00:53:06.923Z,11.57
2022-11-13T00:55:52.388Z,11.59
2022-11-13T00:58:38.013Z,11.62
2022-11-13T01:01:23.571Z,11.62
2022-11-13T01:04:09.414Z,11.63
2022-11-13T01:06:55.829Z,11.62
2022-11-13T01:09:41.886Z,11.62
2022-11-13T01:12:27.405Z,11.61
2022-11-13T01:15:13.232Z,11.57
2022-11-13T01:17:58.968Z,11.54
2022-11-13T01:20:45.374Z,11.53
2022-11-13T01:23:30.940Z,11.53
2022-11-13T01:26:20.363Z,11.56
2022-11-13T01:29:07.249Z,11.56
2022-11-13T01:31:53.141Z,11.53
2022-11-13T01:34:38.742Z,11.50
2022-11-13T01:37:24.371Z,11.47
2022-11-13T01:40:12.714Z,11.43
2022-11-13T01:42:58.148Z,11.40
2022-11-13T01:45:59.142Z,11.37
2022-11-13T01:48:49.752Z,11.36
2022-11-13T01:51:40.223Z,11.35
2022-11-13T01:54:29.709Z,11.34
2022-11-13T01:57:17.295Z,11.34
2022-11-13T02:00:07.750Z,11.35
2022-11-13T02:02:53.567Z,11.32
2022-11-13T02:05:39.373Z,11.30
2022-11-13T02:08:25.364Z,11.28
2022-11-13T02:11:13.327Z,11.25
2022-11-13T02:14:00.764Z,11.23
2022-11-13T02:16:49.127Z,11.23
2022-11-13T02:19:39.862Z,11.23
2022-11-13T02:22:44.014Z,11.21
2022-11-13T02:25:32.374Z,11.18
2022-11-13T02:28:17.950Z,11.14
2022-11-13T02:31:10.550Z,11.10
2022-11-13T02:33:56.322Z,11.09
2022-11-13T02:36:42.260Z,11.08
2022-11-13T02:39:27.666Z,11.09
2022-11-13T02:42:13.241Z,11.11
2022-11-13T02:44:59.348Z,11.12
2022-11-13T02:47:45.414Z,11.15
2022-11-13T02:50:32.314Z,11.19
2022-11-13T02:53:17.890Z,11.20
2022-11-13T02:56:03.729Z,11.17
2022-11-13T02:58:49.552Z,11.11
2022-11-13T03:01:35.110Z,11.05
2022-11-13T03:04:21.357Z,11.02
2022-11-13T03:07:07.135Z,11.02
2022-11-13T03:09:52.820Z,11.03
2022-11-13T03:12:38.915Z,11.06
2022-11-13T03:15:24.538Z,11.08
2022-11-13T03:18:12.117Z,11.09
2022-11-13T03:20:57.983Z,11.12
2022-11-13T03:23:47.086Z,11.13
2022-11-13T03:26:32.484Z,11.12
2022-11-13T03:29:18.265Z,11.10
2022-11-13T03:32:03.895Z,11.08
2022-11-13T03:34:49.684Z,11.05
2022-11-13T03:37:35.079Z,11.05
2022-11-13T03:40:20.810Z,11.06
2022-11-13T03:43:06.444Z,11.05
2022-11-13T03:45:52.243Z,11.08
2022-11-13T03:48:37.972Z,11.11
2022-11-13T03:51:23.502Z,11.12
2022-11-13T03:54:09.013Z,11.14
2022-11-13T03:56:54.903Z,11.16
2022-11-13T03:59:40.453Z,11.15
2022-11-13T04:02:25.978Z,11.12
2022-11-13T04:05:11.485Z,11.11
2022-11-13T04:07:57.138Z,11.09
2022-11-13T04:10:43.110Z,11.07
2022-11-13T04:13:28.537Z,11.08
2022-11-13T04:16:14.120Z,11.09
2022-11-13T04:18:59.480Z,11.11
2022-11-13T04:21:45.054Z,11.10
2022-11-13T04:24:30.824Z,11.06
2022-11-13T04:27:16.427Z,11.05
2022-11-13T04:30:02.580Z,11.03
2022-11-13T04:32:48.013Z,11.00
2022-11-13T04:35:33.570Z,10.98
2022-11-13T04:38:19.318Z,10.97
2022-11-13T04:41:24.198Z,10.96
2022-11-13T04:44:09.605Z,10.97
2022-11-13T04:46:55.262Z,10.99
2022-11-13T04:49:40.763Z,11.02
2022-11-13T04:52:26.382Z,11.05
2022-11-13T04:55:14.073Z,11.07
2022-11-13T04:57:59.818Z,11.08
2022-11-13T05:00:45.452Z,11.08
2022-11-13T05:03:31.116Z,11.09
2022-11-13T05:06:16.993Z,11.11
2022-11-13T05:09:02.886Z,11.15
2022-11-13T05:11:48.635Z,11.17
2022-11-13T05:14:38.586Z,11.19
2022-11-13T05:17:24.090Z,11.19
2022-11-13T05:20:10.508Z,11.20
2022-11-13T05:22:55.868Z,11.19
2022-11-13T05:25:41.439Z,11.16
2022-11-13T05:28:27.255Z,11.13
2022-11-13T05:31:15.777Z,11.14
2022-11-13T05:34:06.059Z,11.15
2022-11-13T05:36:52.043Z,11.18
2022-11-13T05:39:37.807Z,11.21
2022-11-13T05:42:23.438Z,11.25
2022-11-13T05:45:09.460Z,11.28
2022-11-13T05:47:55.379Z,11.29
2022-11-13T05:50:40.966Z,11.29
2022-11-13T05:53:26.528Z,11.28
2022-11-13T05:56:26.478Z,11.31
2022-11-13T05:59:12.172Z,11.34
2022-11-13T06:01:58.183Z,11.37
2022-11-13T06:04:43.971Z,11.40
2022-11-13T06:07:29.557Z,11.43
2022-11-13T06:10:15.340Z,11.43
2022-11-13T06:13:01.140Z,11.42
2022-11-13T06:15:46.595Z,11.40
2022-11-13T06:18:33.934Z,11.39
2022-11-13T06:21:23.078Z,11.41
2022-11-13T06:24:11.830Z,11.41
2022-11-13T06:26:57.302Z,11.42
2022-11-13T06:29:43.196Z,11.42
2022-11-13T06:32:29.051Z,11.43
2022-11-13T06:35:14.795Z,11.44
2022-11-13T06:38:01.337Z,11.43
2022-11-13T06:40:46.875Z,11.41
2022-11-13T06:43:33.056Z,11.37
2022-11-13T06:46:19.904Z,11.34
2022-11-13T06:49:05.621Z,11.35
2022-11-13T06:51:51.500Z,11.36
2022-11-13T06:54:37.255Z,11.38
2022-11-13T06:57:23.104Z,11.38
2022-11-13T07:00:09.421Z,11.40
2022-11-13T07:02:55.126Z,11.42
2022-11-13T07:05:40.560Z,11.44
2022-11-13T07:08:26.722Z,11.44
2022-11-13T07:11:15.450Z,11.46
2022-11-13T07:14:01.340Z,11.47
2022-11-13T07:17:08.008Z,11.49
2022-11-13T07:19:52.572Z,11.52
2022-11-13T07:22:38.158Z,11.53
2022-11-13T07:25:24.547Z,11.55
2022-11-13T07:28:10.624Z,11.56
2022-11-13T07:31:00.476Z,11.59
2022-11-13T07:33:48.731Z,11.59
2022-11-13T07:36:34.237Z,11.60
2022-11-13T07:39:19.840Z,11.60
2022-11-13T07:42:05.451Z,11.61
2022-11-13T07:44:55.296Z,11.62
2022-11-13T07:47:41.690Z,11.64
2022-11-13T07:50:29.160Z,11.65
2022-11-13T07:53:15.141Z,11.68
2022-11-13T07:56:02.350Z,11.69
2022-11-13T07:58:47.892Z,11.65
2022-11-13T08:01:33.602Z,11.63
2022-11-13T08:04:19.697Z,11.63
2022-11-13T08:07:05.076Z,11.64
2022-11-13T08:09:50.911Z,11.67
2022-11-13T08:12:36.485Z,11.69
2022-11-13T08:15:21.967Z,11.74
2022-11-13T08:18:07.535Z,11.79
2022-11-13T08:20:52.990Z,11.85
2022-11-13T08:23:38.449Z,11.88
2022-11-13T08:26:24.127Z,11.86
2022-11-13T08:29:09.810Z,11.85
2022-11-13T08:31:55.355Z,11.86
2022-11-13T08:34:40.993Z,11.87
2022-11-13T08:37:26.878Z,11.85
2022-11-13T08:40:13.127Z,11.82
2022-11-13T08:43:00.587Z,11.80
2022-11-13T08:45:47.556Z,11.83
2022-11-13T08:48:34.399Z,11.87
2022-11-13T08:51:19.991Z,11.89
2022-11-13T08:54:05.644Z,11.88
2022-11-13T08:56:55.803Z,11.87
2022-11-13T08:59:42.238Z,11.87
2022-11-13T09:02:28.242Z,11.86
2022-11-13T09:05:14.252Z,11.88
2022-11-13T09:08:01.498Z,11.88
2022-11-13T09:10:47.421Z,11.93
2022-11-13T09:13:35.787Z,11.99
2022-11-13T09:16:23.319Z,11.96
2022-11-13T09:19:09.115Z,11.92
2022-11-13T09:21:55.068Z,11.88
2022-11-13T09:24:40.543Z,11.89
2022-11-13T09:27:26.280Z,11.88
2022-11-13T09:30:12.897Z,11.90
2022-11-13T09:33:00.529Z,11.90
2022-11-13T09:35:46.296Z,11.90
2022-11-13T09:38:32.358Z,11.91
2022-11-13T09:41:21.805Z,11.89
2022-11-13T09:44:17.149Z,11.87
2022-11-13T09:47:05.589Z,11.83
2022-11-13T09:49:58.789Z,11.80
2022-11-13T09:52:45.988Z,11.79
2022-11-13T09:55:35.793Z,11.76
2022-11-13T09:58:34.410Z,11.78
2022-11-13T10:01:46.390Z,11.81
2022-11-13T10:04:40.169Z,11.83
2022-11-13T10:07:59.200Z,11.85
2022-11-13T10:10:53.670Z,11.84
2022-11-13T10:13:45.851Z,11.82
2022-11-13T10:16:36.215Z,11.82
2022-11-13T10:19:28.718Z,11.78
2022-11-13T10:22:32.830Z,11.78
2022-11-13T10:25:25.860Z,11.77
2022-11-13T10:28:48.737Z,11.78
2022-11-13T10:31:28.693Z,11.79
2022-11-13T10:34:15.425Z,11.79
2022-11-13T10:37:30.895Z,11.79
2022-11-13T10:40:32.224Z,11.80
2022-11-13T10:43:22.682Z,11.84
2022-11-13T10:46:25.708Z,11.91
2022-11-13T10:49:17.058Z,11.97
2022-11-13T10:52:06.983Z,12.03
2022-11-13T10:55:12.709Z,12.08
2022-11-13T10:58:00.508Z,12.09
2022-11-13T11:00:49.295Z,12.09
2022-11-13T11:03:34.962Z,12.06
2022-11-13T11:06:20.830Z,12.04
2022-11-13T11:09:27.327Z,12.05
2022-11-13T11:12:19.222Z,12.08
2022-11-13T11:15:23.185Z,12.13
2022-11-13T11:18:18.287Z,12.15
2022-11-13T11:21:10.026Z,12.18
2022-11-13T11:24:18.511Z,12.20
2022-11-13T11:27:19.614Z,12.21
2022-11-13T11:30:21.119Z,12.19
2022-11-13T11:33:15.792Z,12.19
2022-11-13T11:36:21.400Z,12.20
2022-11-13T11:39:27.825Z,12.22
2022-11-13T11:42:22.858Z,12.24
2022-11-13T11:45:16.700Z,12.26
2022-11-13T11:48:06.189Z,12.28
2022-11-13T11:51:07.706Z,12.27
2022-11-13T11:54:18.870Z,12.27
2022-11-13T11:57:31.650Z,12.27
2022-11-13T12:00:19.951Z,12.30
2022-11-13T12:03:26.917Z,12.30
2022-11-13T12:06:33.103Z,12.32
2022-11-13T12:09:34.809Z,12.31
2022-11-13T12:12:36.565Z,12.32
2022-11-13T12:15:35.424Z,12.30
2022-11-13T12:18:36.857Z,12.30
2022-11-13T12:21:28.642Z,12.32
2022-11-13T12:24:32.883Z,12.35
2022-11-13T12:27:24.239Z,12.38
2022-11-13T12:30:22.447Z,12.40
2022-11-13T12:33:31.561Z,12.42
2022-11-13T12:36:17.997Z,12.40
2022-11-13T12:39:11.339Z,12.38
2022-11-13T12:42:05.198Z,12.36
2022-11-13T12:45:24.147Z,12.36
2022-11-13T12:48:21.315Z,12.37
2022-11-13T12:51:10.935Z,12.39
2022-11-13T12:53:56.745Z,12.40
2022-11-13T12:56:42.351Z,12.40
2022-11-13T12:59:41.458Z,12.39
2022-11-13T13:02:58.128Z,12.39
2022-11-13T13:06:03.011Z,12.36
2022-11-13T13:09:00.243Z,12.35
2022-11-13T13:12:24.990Z,12.37
2022-11-13T13:15:33.018Z,12.36
2022-11-13T13:18:18.808Z,12.36
2022-11-13T13:21:09.303Z,12.35
2022-11-13T13:23:55.116Z,12.33
2022-11-13T13:26:47.499Z,12.30
2022-11-13T13:29:33.745Z,12.28
2022-11-13T13:32:42.222Z,12.28
2022-11-13T13:35:37.067Z,12.29
2022-11-13T13:38:52.265Z,12.30
2022-11-13T13:42:01.205Z,12.32
2022-11-13T13:45:11.519Z,12.32
2022-11-13T13:47:57.933Z,12.31
2022-11-13T13:50:47.005Z,12.29
2022-11-13T13:53:36.036Z,12.26
2022-11-13T13:56:23.414Z,12.25
2022-11-13T13:59:28.022Z,12.28
2022-11-13T14:02:23.247Z,12.31
2022-11-13T14:05:26.752Z,12.34
2022-11-13T14:08:17.932Z,12.36
2022-11-13T14:11:17.775Z,12.37
2022-11-13T14:14:30.139Z,12.37
2022-11-13T14:17:24.490Z,12.34
2022-11-13T14:20:12.590Z,12.31
2022-11-13T14:22:58.352Z,12.30
2022-11-13T14:25:45.022Z,12.30
2022-11-13T14:28:33.901Z,12.31
2022-11-13T14:31:19.713Z,12.29
2022-11-13T14:34:17.173Z,12.30
2022-11-13T14:37:21.140Z,12.28
2022-11-13T14:40:32.583Z,12.26
2022-11-13T14:43:24.761Z,12.23
2022-11-13T14:46:27.763Z,12.23
2022-11-13T14:49:25.784Z,12.23
2022-11-13T14:52:24.134Z,12.23
2022-11-13T14:55:22.541Z,12.24
2022-11-13T14:58:13.943Z,12.25
2022-11-13T15:01:14.365Z,12.24
2022-11-13T15:03:59.900Z,12.22
2022-11-13T15:06:45.755Z,12.19
2022-11-13T15:09:31.808Z,12.17
2022-11-13T15:12:17.328Z,12.16
2022-11-13T15:15:03.257Z,12.16
2022-11-13T15:17:51.379Z,12.16
2022-11-13T15:20:36.945Z,12.16
2022-11-13T15:23:25.546Z,12.17
2022-11-13T15:26:12.584Z,12.14
2022-11-13T15:28:58.623Z,12.11
2022-11-13T15:31:46.223Z,12.09
2022-11-13T15:34:32.522Z,12.07
2022-11-13T15:37:18.143Z,12.07
2022-11-13T15:40:05.052Z,12.07
2022-11-13T15:42:51.238Z,12.08
2022-11-13T15:45:41.197Z,12.09
2022-11-13T15:48:29.636Z,12.08
2022-11-13T15:51:24.278Z,12.08
2022-11-13T15:54:24.611Z,12.08
2022-11-13T15:57:20.164Z,12.05
2022-11-13T16:00:13.798Z,12.02
2022-11-13T16:02:59.616Z,12.04
2022-11-13T16:05:45.363Z,12.04
2022-11-13T16:08:31.088Z,12.04
2022-11-13T16:11:20.623Z,12.03
2022-11-13T16:14:06.915Z,12.01
2022-11-13T16:16:53.521Z,11.97
2022-11-13T16:19:41.110Z,11.92
2022-11-13T16:22:27.459Z,11.85
2022-11-13T16:25:16.260Z,11.80
2022-11-13T16:28:02.071Z,11.81
2022-11-13T16:30:48.613Z,11.84
2022-11-13T16:33:34.167Z,11.83
2022-11-13T16:36:22.140Z,11.80
2022-11-13T16:39:15.971Z,11.78
2022-11-13T16:42:02.299Z,11.73
2022-11-13T16:44:48.342Z,11.69
2022-11-13T16:47:33.992Z,11.67
2022-11-13T16:50:24.153Z,11.67
2022-11-13T16:53:10.641Z,11.68
2022-11-13T16:55:56.159Z,11.71
2022-11-13T16:58:42.110Z,11.69
2022-11-13T17:01:27.478Z,11.69
2022-11-13T17:04:14.865Z,11.69
2022-11-13T17:07:00.442Z,11.68
2022-11-13T17:09:46.409Z,11.69
2022-11-13T17:12:32.120Z,11.69
2022-11-13T17:15:18.308Z,11.68
2022-11-13T17:18:03.805Z,11.67
2022-11-13T17:20:52.716Z,11.65
2022-11-13T17:23:38.575Z,11.68
2022-11-13T17:26:25.264Z,11.70
2022-11-13T17:29:11.045Z,11.73
2022-11-13T17:31:56.934Z,11.73
2022-11-13T17:34:43.779Z,11.72
2022-11-13T17:37:29.383Z,11.72
2022-11-13T17:40:15.162Z,11.72
2022-11-13T17:43:00.881Z,11.70
2022-11-13T17:45:51.156Z,11.73
2022-11-13T17:48:37.541Z,11.75
2022-11-13T17:51:23.327Z,11.77
2022-11-13T17:54:08.849Z,11.78
2022-11-13T17:56:54.560Z,11.78
2022-11-13T17:59:41.370Z,11.77
2022-11-13T18:02:27.387Z,11.76
2022-11-13T18:05:13.262Z,11.75
2022-11-13T18:07:58.981Z,11.75
2022-11-13T18:10:44.390Z,11.77
2022-11-13T18:13:31.121Z,11.80
2022-11-13T18:16:30.757Z,11.81
2022-11-13T18:19:16.264Z,11.84
2022-11-13T18:22:01.819Z,11.86
2022-11-13T18:24:48.170Z,11.84
2022-11-13T18:27:33.944Z,11.84
2022-11-13T18:30:19.906Z,11.79
2022-11-13T18:33:06.374Z,11.78
2022-11-13T18:35:55.836Z,11.75
2022-11-13T18:38:41.855Z,11.75
2022-11-13T18:41:27.385Z,11.77
2022-11-13T18:44:13.487Z,11.77
2022-11-13T18:46:59.390Z,11.75
2022-11-13T18:49:45.003Z,11.76
2022-11-13T18:52:32.857Z,11.76
2022-11-13T18:55:18.641Z,11.73
2022-11-13T18:58:04.202Z,11.70
2022-11-13T19:00:49.824Z,11.67
2022-11-13T19:03:35.738Z,11.65
2022-11-13T19:06:23.202Z,11.65
2022-11-13T19:09:12.561Z,11.65
2022-11-13T19:11:58.340Z,11.65
2022-11-13T19:14:43.997Z,11.65
2022-11-13T19:17:29.552Z,11.68
2022-11-13T19:20:17.778Z,11.69
2022-11-13T19:23:08.870Z,11.70
2022-11-13T19:25:55.040Z,11.67
2022-11-13T19:28:40.942Z,11.64
2022-11-13T19:31:28.011Z,11.60
2022-11-13T19:34:14.620Z,11.60
2022-11-13T19:37:00.467Z,11.61
2022-11-13T19:39:46.112Z,11.61
2022-11-13T19:42:31.868Z,11.63
2022-11-13T19:45:17.560Z,11.64
2022-11-13T19:48:03.091Z,11.65
2022-11-13T19:50:48.474Z,11.63
2022-11-13T19:53:33.982Z,11.61
2022-11-13T19:56:21.511Z,11.59
2022-11-13T19:59:11.114Z,11.57
2022-11-13T20:01:57.044Z,11.53
2022-11-13T20:04:42.935Z,11.54
2022-11-13T20:07:28.585Z,11.55
2022-11-13T20:10:14.373Z,11.57
2022-11-13T20:13:00.097Z,11.58
2022-11-13T20:15:52.897Z,11.58
2022-11-13T20:18:39.192Z,11.57
2022-11-13T20:21:26.620Z,11.55
2022-11-13T20:24:12.284Z,11.54
2022-11-13T20:26:58.182Z,11.52
2022-11-13T20:29:43.552Z,11.52
2022-11-13T20:32:29.176Z,11.51
2022-11-13T20:35:16.229Z,11.52
2022-11-13T20:38:01.869Z,11.53
2022-11-13T20:40:47.504Z,11.54
2022-11-13T20:43:33.736Z,11.56
2022-11-13T20:46:20.035Z,11.55
2022-11-13T20:49:06.039Z,11.54
2022-11-13T20:51:55.920Z,11.50
2022-11-13T20:54:42.839Z,11.44
2022-11-13T20:57:28.564Z,11.41
2022-11-13T21:00:14.326Z,11.41
2022-11-13T21:02:59.760Z,11.39
2022-11-13T21:05:45.264Z,11.39
2022-11-13T21:08:31.497Z,11.40
2022-11-13T21:11:22.074Z,11.40
2022-11-13T21:14:09.826Z,11.42
2022-11-13T21:16:55.516Z,11.43
2022-11-13T21:19:41.036Z,11.41
2022-11-13T21:22:26.713Z,11.38
2022-11-13T21:25:12.564Z,11.38
2022-11-13T21:27:58.136Z,11.38
2022-11-13T21:30:43.758Z,11.39
2022-11-13T21:33:30.898Z,11.41
2022-11-13T21:36:19.427Z,11.44
2022-11-13T21:39:05.047Z,11.45
2022-11-13T21:41:51.057Z,11.43
2022-11-13T21:44:36.444Z,11.41
2022-11-13T21:47:21.739Z,11.37
2022-11-13T21:50:07.935Z,11.33
2022-11-13T21:52:53.562Z,11.34
2022-11-13T21:55:39.312Z,11.34
2022-11-13T21:58:40.582Z,11.34
2022-11-13T22:01:27.032Z,11.34
2022-11-13T22:04:12.611Z,11.32
2022-11-13T22:06:58.318Z,11.32
2022-11-13T22:09:44.126Z,11.32
2022-11-13T22:12:29.773Z,11.29
2022-11-13T22:15:15.277Z,11.27
2022-11-13T22:18:00.530Z,11.28
2022-11-13T22:20:48.887Z,11.29
2022-11-13T22:23:34.793Z,11.28
2022-11-13T22:26:22.400Z,11.30
2022-11-13T22:29:09.941Z,11.30
2022-11-13T22:31:55.983Z,11.30
2022-11-13T22:34:41.901Z,11.30
2022-11-13T22:37:27.646Z,11.28
2022-11-13T22:40:13.667Z,11.25
2022-11-13T22:42:59.525Z,11.25
2022-11-13T22:45:45.351Z,11.27
2022-11-13T22:48:31.521Z,11.28
2022-11-13T22:51:19.795Z,11.30
2022-11-13T22:54:08.454Z,11.31
2022-11-13T22:56:54.241Z,11.33
2022-11-13T22:59:39.782Z,11.33
2022-11-13T23:02:25.387Z,11.32
2022-11-13T23:05:10.913Z,11.32
2022-11-13T23:07:56.520Z,11.30
2022-11-13T23:10:42.163Z,11.29
2022-11-13T23:13:27.804Z,11.29
2022-11-13T23:16:13.931Z,11.30
2022-11-13T23:19:01.280Z,11.30
2022-11-13T23:21:47.284Z,11.30
2022-11-13T23:24:33.503Z,11.29
2022-11-13T23:27:19.061Z,11.26
2022-11-13T23:30:05.328Z,11.21
2022-11-13T23:32:50.899Z,11.19
2022-11-13T23:35:36.537Z,11.19
2022-11-13T23:38:22.621Z,11.21
2022-11-13T23:41:10.330Z,11.21
2022-11-13T23:44:11.274Z,11.21
2022-11-13T23:46:57.058Z,11.19
2022-11-13T23:49:42.740Z,11.18
2022-11-13T23:52:28.353Z,11.17
2022-11-13T23:55:14.400Z,11.13
2022-11-13T23:58:00.829Z,11.08
